Time;durP1;ratioP1;P1;durP2;ratioP2;P2;SDS_P1;SDS_P2;PMS_P1;PMS_P2;Temp;Humidity;BMP_temperature;BMP_pressure;BME280_temperature;BME280_humidity;BME280_pressure;Samples;Min_cycle;Max_cycle;Signal;HPM_P1;HPM_P2
2023/03/12 00:01:51;;;;;;;5.53;2.70;;;-1.10;99.90;;;;;;5071067;28;20039;-83
2023/03/12 00:04:17;;;;;;;6.18;2.40;;;-1.10;99.90;;;;;;5104607;28;20094;-83
2023/03/12 00:06:44;;;;;;;4.30;1.92;;;-1.10;99.90;;;;;;5087446;28;20045;-83
2023/03/12 00:09:11;;;;;;;5.50;2.42;;;-0.30;99.90;;;;;;5071368;28;20547;-83
2023/03/12 00:11:38;;;;;;;9.70;2.92;;;-1.20;99.90;;;;;;5087659;28;20036;-83
2023/03/12 00:14:04;;;;;;;5.25;2.45;;;-0.50;99.90;;;;;;5071280;28;20037;-83
2023/03/12 00:16:31;;;;;;;5.25;2.45;;;-1.20;99.90;;;;;;5087308;28;20041;-83
2023/03/12 00:18:58;;;;;;;8.43;2.70;;;-1.20;99.90;;;;;;5086366;28;20565;-82
2023/03/12 00:21:25;;;;;;;4.68;2.38;;;-1.30;99.90;;;;;;5104500;28;20391;-83
2023/03/12 00:23:52;;;;;;;4.82;2.15;;;-0.90;99.90;;;;;;5087206;28;20544;-83
2023/03/12 00:26:19;;;;;;;9.43;2.65;;;-1.30;99.90;;;;;;5087097;28;20070;-83
2023/03/12 00:28:48;;;;;;;7.80;2.17;;;-0.20;99.90;;;;;;5087320;28;20044;-83
2023/03/12 00:31:19;;;;;;;6.10;2.00;;;-0.20;99.90;;;;;;5087411;28;20537;-83
2023/03/12 00:33:48;;;;;;;5.68;2.10;;;-1.10;99.90;;;;;;5070822;28;20090;-83
2023/03/12 00:36:20;;;;;;;4.40;1.65;;;-1.40;99.90;;;;;;5070949;28;20048;-82
2023/03/12 00:38:46;;;;;;;6.05;2.47;;;-1.40;99.90;;;;;;5070753;28;20040;-83
2023/03/12 00:41:13;;;;;;;5.28;1.98;;;-1.00;99.90;;;;;;5087192;28;20123;-83
2023/03/12 00:43:40;;;;;;;5.70;1.98;;;-1.40;99.90;;;;;;5070091;28;20049;-82
2023/03/12 00:46:07;;;;;;;4.75;2.03;;;-1.40;99.90;;;;;;5086574;28;20501;-82
2023/03/12 00:48:33;;;;;;;3.80;1.77;;;-1.40;99.90;;;;;;5103530;28;20524;-82
2023/03/12 00:51:00;;;;;;;6.30;1.95;;;-1.40;99.90;;;;;;5086242;28;20057;-83
2023/03/12 00:53:27;;;;;;;3.63;1.80;;;-1.40;99.90;;;;;;5103986;28;20041;-83
2023/03/12 00:55:53;;;;;;;6.28;2.03;;;-0.70;99.90;;;;;;5086826;28;20131;-83
2023/03/12 00:58:20;;;;;;;6.57;1.95;;;-1.50;99.90;;;;;;5070260;28;20453;-82
2023/03/12 01:00:48;;;;;;;4.82;1.80;;;-1.50;99.90;;;;;;5069761;28;20041;-83
2023/03/12 01:03:14;;;;;;;4.82;2.20;;;-1.40;99.90;;;;;;5103465;28;20048;-82
2023/03/12 01:05:41;;;;;;;5.15;1.92;;;-1.50;99.90;;;;;;5069784;28;20053;-82
2023/03/12 01:08:09;;;;;;;4.40;1.85;;;-1.50;99.90;;;;;;5086508;28;20496;-83
2023/03/12 01:10:40;;;;;;;5.57;1.98;;;-1.50;99.90;;;;;;5070107;28;20041;-82
2023/03/12 01:13:07;;;;;;;5.20;2.25;;;-1.50;99.90;;;;;;5069841;28;20128;-83
2023/03/12 01:15:34;;;;;;;6.00;2.47;;;-1.50;99.90;;;;;;5070028;28;20043;-82
2023/03/12 01:18:01;;;;;;;10.18;2.40;;;-1.50;99.90;;;;;;5086267;28;20119;-82
2023/03/12 01:20:27;;;;;;;5.32;2.70;;;-1.50;99.90;;;;;;5086460;28;20044;-82
2023/03/12 01:22:54;;;;;;;5.55;2.40;;;-0.90;99.90;;;;;;5069414;28;20052;-82
2023/03/12 01:25:21;;;;;;;7.40;2.88;;;-1.60;99.90;;;;;;5069692;28;20110;-83
2023/03/12 01:27:48;;;;;;;6.20;2.75;;;-1.50;99.90;;;;;;5086255;28;20029;-82
2023/03/12 01:30:17;;;;;;;7.80;2.47;;;-0.90;99.90;;;;;;5102787;28;20090;-82
2023/03/12 01:32:44;;;;;;;4.25;2.10;;;-0.80;99.90;;;;;;5102886;28;20036;-83
2023/03/12 01:35:11;;;;;;;7.25;2.80;;;-1.60;99.90;;;;;;5086314;28;20189;-82
2023/03/12 01:37:37;;;;;;;4.68;2.05;;;-1.60;99.90;;;;;;5086243;28;20041;-82
2023/03/12 01:40:05;;;;;;;4.30;1.98;;;-1.60;99.90;;;;;;5085853;28;20041;-82
2023/03/12 01:42:31;;;;;;;6.30;2.35;;;-1.60;99.90;;;;;;5085862;28;20485;-83
2023/03/12 01:45:01;;;;;;;4.93;2.13;;;-1.60;99.90;;;;;;5068994;28;20037;-82
2023/03/12 01:47:31;;;;;;;4.90;2.20;;;-1.70;99.90;;;;;;5069280;28;20044;-82
2023/03/12 01:49:59;;;;;;;4.28;2.28;;;-1.60;99.90;;;;;;5068785;28;20514;-83
2023/03/12 01:52:30;;;;;;;5.25;2.30;;;-1.70;99.90;;;;;;5086035;28;20138;-82
2023/03/12 01:55:15;;;;;;;5.03;2.22;;;-1.70;99.90;;;;;;5069158;28;20045;-82
2023/03/12 01:57:47;;;;;;;18.95;2.17;;;-1.70;99.90;;;;;;5102607;28;20145;-82
2023/03/12 02:00:24;;;;;;;9.98;2.20;;;-1.70;99.90;;;;;;5101970;28;20049;-82
2023/03/12 02:02:53;;;;;;;3.70;1.92;;;-1.70;99.90;;;;;;5068986;28;20095;-81
2023/03/12 02:05:28;;;;;;;8.10;2.40;;;-1.70;99.90;;;;;;5085249;28;20624;-83
2023/03/12 02:07:56;;;;;;;8.00;2.42;;;-1.70;99.90;;;;;;5068597;28;20079;-82
2023/03/12 02:10:24;;;;;;;8.07;2.40;;;-1.70;99.90;;;;;;5068964;28;20039;-83
2023/03/12 02:12:51;;;;;;;6.45;2.47;;;-1.70;99.90;;;;;;5101995;28;20064;-82
2023/03/12 02:15:19;;;;;;;8.93;2.33;;;-1.60;99.90;;;;;;5102560;28;20048;-82
2023/03/12 02:17:45;;;;;;;7.90;2.67;;;-1.70;99.90;;;;;;5068984;28;20088;-82
2023/03/12 02:20:51;;;;;;;5.45;2.30;;;-1.40;99.90;;;;;;5068419;28;20051;-82
2023/03/12 02:23:30;;;;;;;5.28;2.00;;;-1.60;99.90;;;;;;5075978;28;20509;-83
2023/03/12 02:25:58;;;;;;;4.43;1.83;;;-1.60;99.90;;;;;;5101695;28;20041;-82
2023/03/12 02:28:28;;;;;;;7.85;2.35;;;-0.60;99.90;;;;;;5068727;28;20047;-82
2023/03/12 02:31:01;;;;;;;4.68;1.92;;;-1.50;99.90;;;;;;5085120;28;20180;-83
2023/03/12 02:33:27;;;;;;;9.27;2.20;;;-1.50;99.90;;;;;;5069058;28;20486;-83
2023/03/12 02:35:55;;;;;;;6.43;2.05;;;-1.40;99.90;;;;;;5068259;28;20051;-82
2023/03/12 02:38:31;;;;;;;9.32;2.20;;;-0.70;99.90;;;;;;5085190;28;20536;-82
2023/03/12 02:41:04;;;;;;;7.35;2.33;;;-1.30;99.90;;;;;;5102871;28;20497;-82
2023/03/12 02:43:31;;;;;;;4.93;2.20;;;-1.30;99.90;;;;;;5072731;28;20072;-82
2023/03/12 02:45:58;;;;;;;5.20;2.10;;;-1.30;99.90;;;;;;5088714;28;20092;-82
2023/03/12 02:48:24;;;;;;;3.42;1.77;;;-1.20;99.90;;;;;;5073299;28;20104;-82
2023/03/12 02:50:51;;;;;;;5.25;2.45;;;-1.20;99.90;;;;;;5089043;28;20053;-82
2023/03/12 02:53:18;;;;;;;5.78;2.10;;;-1.20;99.90;;;;;;5072273;28;20508;-82
2023/03/12 02:55:45;;;;;;;11.52;2.42;;;-0.30;99.90;;;;;;5089178;28;20386;-82
2023/03/12 02:58:11;;;;;;;5.38;2.33;;;-0.40;99.90;;;;;;5105587;28;20051;-83
2023/03/12 03:00:38;;;;;;;5.15;2.30;;;-1.10;99.90;;;;;;5089169;28;20516;-82
2023/03/12 03:03:05;;;;;;;5.60;2.03;;;-0.50;99.90;;;;;;5088558;28;20114;-82
2023/03/12 03:05:32;;;;;;;7.70;2.30;;;-1.10;99.90;;;;;;5088900;28;20041;-83
2023/03/12 03:07:59;;;;;;;4.07;2.08;;;-0.80;99.90;;;;;;5072386;28;20041;-82
2023/03/12 03:10:26;;;;;;;5.68;2.50;;;-0.60;99.90;;;;;;5072495;28;20033;-82
2023/03/12 03:12:53;;;;;;;4.13;2.08;;;-1.00;99.90;;;;;;5089197;28;20035;-83
2023/03/12 03:15:19;;;;;;;6.45;2.35;;;-1.10;99.90;;;;;;5088745;28;20049;-82
2023/03/12 03:17:46;;;;;;;6.38;2.50;;;-1.10;99.90;;;;;;5105675;28;20044;-82
2023/03/12 03:20:13;;;;;;;4.20;2.28;;;-0.20;99.90;;;;;;5088645;28;20131;-82
2023/03/12 03:22:40;;;;;;;5.95;2.20;;;-1.00;99.90;;;;;;5072156;28;20131;-82
2023/03/12 03:25:08;;;;;;;8.82;2.63;;;-0.90;99.90;;;;;;5071438;28;20048;-82
2023/03/12 03:27:35;;;;;;;7.20;2.20;;;-1.00;99.90;;;;;;5088425;28;20041;-83
2023/03/12 03:30:03;;;;;;;8.52;2.75;;;-1.00;99.90;;;;;;5072029;28;20037;-82
2023/03/12 03:32:29;;;;;;;4.80;2.15;;;-0.90;99.90;;;;;;5088640;28;20602;-82
2023/03/12 03:34:56;;;;;;;4.78;2.08;;;-0.60;99.90;;;;;;5105085;28;20048;-82
2023/03/12 03:37:23;;;;;;;5.60;2.47;;;-0.90;99.90;;;;;;5071726;28;20041;-83
2023/03/12 03:39:50;;;;;;;5.35;2.72;;;-0.30;99.90;;;;;;5105173;28;20045;-82
2023/03/12 03:42:16;;;;;;;7.63;2.60;;;-0.80;99.90;;;;;;5071265;28;20045;-83
2023/03/12 03:44:43;;;;;;;8.88;2.40;;;-0.90;99.90;;;;;;5087466;28;20516;-82
2023/03/12 03:47:10;;;;;;;4.85;1.73;;;-0.80;99.90;;;;;;5104446;28;20041;-83
2023/03/12 03:49:36;;;;;;;5.88;2.33;;;-0.80;99.90;;;;;;5104699;28;20037;-82
2023/03/12 03:52:03;;;;;;;5.00;2.30;;;-0.80;99.90;;;;;;5087737;28;20053;-82
2023/03/12 03:54:30;;;;;;;9.32;2.53;;;-0.80;99.90;;;;;;5071423;28;20052;-82
2023/03/12 03:56:57;;;;;;;3.65;2.05;;;-0.80;99.90;;;;;;5088451;28;20047;-83
2023/03/12 03:59:23;;;;;;;5.50;2.42;;;-0.60;99.90;;;;;;5087851;28;20044;-83
2023/03/12 04:01:51;;;;;;;6.82;2.38;;;-0.80;99.90;;;;;;5071465;28;20044;-83
2023/03/12 04:04:17;;;;;;;5.13;2.20;;;-0.80;99.90;;;;;;5071178;28;20128;-82
2023/03/12 04:06:44;;;;;;;4.10;2.13;;;-0.80;99.90;;;;;;5071381;28;20123;-82
2023/03/12 04:09:11;;;;;;;8.48;2.75;;;0.20;99.90;;;;;;5104200;28;20041;-82
2023/03/12 04:11:38;;;;;;;5.07;2.38;;;-0.70;99.90;;;;;;5121612;28;20041;-82
2023/03/12 04:14:04;;;;;;;4.43;2.30;;;-0.70;99.90;;;;;;5071291;28;20037;-82
2023/03/12 04:16:31;;;;;;;5.05;2.30;;;-0.10;99.90;;;;;;5087429;28;20097;-83
2023/03/12 04:18:58;;;;;;;5.50;2.40;;;0.30;99.90;;;;;;5071310;28;20076;-83
2023/03/12 04:21:25;;;;;;;6.57;2.30;;;-0.50;99.90;;;;;;5071373;28;20045;-82
2023/03/12 04:23:51;;;;;;;6.40;2.42;;;-0.60;99.90;;;;;;5087669;28;20142;-83
2023/03/12 04:26:18;;;;;;;9.35;2.45;;;-0.60;99.90;;;;;;5087437;28;20059;-83
2023/03/12 04:28:45;;;;;;;4.82;2.25;;;-0.60;99.90;;;;;;5087614;28;20070;-82
2023/03/12 04:31:12;;;;;;;5.05;2.60;;;0.00;99.90;;;;;;5070442;28;20083;-83
2023/03/12 04:33:39;;;;;;;7.32;2.50;;;-0.60;99.90;;;;;;5103991;28;20033;-82
2023/03/12 04:36:07;;;;;;;6.20;2.30;;;-0.60;99.90;;;;;;5070662;28;20044;-83
2023/03/12 04:38:34;;;;;;;11.70;2.72;;;-0.50;99.90;;;;;;5070534;28;20473;-82
2023/03/12 04:41:10;;;;;;;7.57;2.80;;;-0.20;99.90;;;;;;5070537;28;20076;-82
2023/03/12 04:43:37;;;;;;;5.65;2.50;;;-0.60;99.90;;;;;;5087732;28;20140;-82
2023/03/12 04:46:05;;;;;;;6.22;2.53;;;-0.60;99.90;;;;;;5104228;28;20136;-82
2023/03/12 04:48:33;;;;;;;5.03;2.58;;;-0.60;99.90;;;;;;5086848;28;20493;-82
2023/03/12 04:51:00;;;;;;;6.70;2.50;;;0.10;99.90;;;;;;5103678;28;20143;-82
2023/03/12 04:53:27;;;;;;;6.50;2.70;;;-0.50;99.90;;;;;;5087136;28;20112;-83
2023/03/12 04:55:53;;;;;;;5.32;2.25;;;-0.60;99.90;;;;;;5103823;28;20049;-83
2023/03/12 04:58:21;;;;;;;7.15;2.95;;;-0.50;99.90;;;;;;5070201;28;20045;-83
2023/03/12 05:00:48;;;;;;;7.95;3.00;;;-0.50;99.90;;;;;;5070410;28;20041;-83
2023/03/12 05:03:16;;;;;;;7.63;3.53;;;-0.20;99.90;;;;;;5069456;28;20048;-82
2023/03/12 05:05:42;;;;;;;5.72;3.10;;;-0.50;99.90;;;;;;5103432;28;20041;-83
2023/03/12 05:08:09;;;;;;;9.38;2.92;;;-0.30;99.90;;;;;;5086728;28;20615;-83
2023/03/12 05:10:36;;;;;;;6.22;3.15;;;0.10;99.90;;;;;;5103173;28;20489;-82
2023/03/12 05:13:03;;;;;;;5.88;2.67;;;-0.50;99.90;;;;;;5087103;28;20444;-83
2023/03/12 05:15:30;;;;;;;5.88;2.75;;;-0.20;99.90;;;;;;5086384;28;20056;-83
2023/03/12 05:17:56;;;;;;;10.15;3.55;;;-0.40;99.90;;;;;;5086732;28;20143;-83
2023/03/12 05:20:23;;;;;;;6.18;2.90;;;-0.40;99.90;;;;;;5086135;28;20099;-83
2023/03/12 05:22:50;;;;;;;7.05;3.05;;;-0.10;99.90;;;;;;5069670;28;20052;-83
2023/03/12 05:25:17;;;;;;;11.35;3.08;;;-0.40;99.90;;;;;;5036764;28;20531;-82
2023/03/12 05:27:44;;;;;;;6.45;3.47;;;-0.40;99.90;;;;;;5069600;28;20068;-82
2023/03/12 05:30:11;;;;;;;5.85;2.92;;;-0.40;99.90;;;;;;5069416;28;20544;-82
2023/03/12 05:32:38;;;;;;;9.50;2.92;;;-0.40;99.90;;;;;;5069218;28;20079;-83
2023/03/12 05:35:05;;;;;;;8.18;3.03;;;-0.40;99.90;;;;;;5053447;28;20509;-83
2023/03/12 05:37:31;;;;;;;5.68;2.72;;;-0.40;99.90;;;;;;5085977;28;20066;-82
2023/03/12 05:39:59;;;;;;;9.95;3.83;;;0.10;99.90;;;;;;5085971;28;20040;-83
2023/03/12 05:42:26;;;;;;;33.97;11.40;;;-0.40;99.90;;;;;;5085365;28;20125;-82
2023/03/12 05:44:52;;;;;;;24.60;9.20;;;-0.10;99.90;;;;;;5102837;28;20048;-82
2023/03/12 05:47:20;;;;;;;18.08;6.68;;;-0.30;99.90;;;;;;5102587;28;20048;-82
2023/03/12 05:49:47;;;;;;;11.85;5.00;;;-0.30;99.90;;;;;;5085465;28;20151;-82
2023/03/12 05:52:13;;;;;;;8.98;4.03;;;-0.40;99.90;;;;;;5068839;28;20136;-82
2023/03/12 05:54:41;;;;;;;13.98;4.00;;;-0.30;99.90;;;;;;5101894;28;20045;-83
2023/03/12 05:57:07;;;;;;;8.35;4.00;;;-0.30;99.90;;;;;;5085208;28;20039;-83
2023/03/12 05:59:34;;;;;;;5.85;3.03;;;0.10;99.90;;;;;;5085662;28;20397;-82
2023/03/12 06:02:01;;;;;;;8.10;3.63;;;0.10;99.90;;;;;;5086062;28;20045;-83
2023/03/12 06:04:28;;;;;;;6.75;3.47;;;-0.30;99.90;;;;;;5102121;28;20118;-83
2023/03/12 06:06:55;;;;;;;8.80;3.33;;;-0.30;99.90;;;;;;5102286;28;20087;-82
2023/03/12 06:09:22;;;;;;;11.13;3.63;;;-0.20;99.90;;;;;;5085516;28;20041;-82
2023/03/12 06:11:49;;;;;;;7.95;3.17;;;0.40;99.90;;;;;;5069349;28;20044;-83
2023/03/12 06:14:15;;;;;;;7.18;3.15;;;-0.20;99.90;;;;;;5086147;28;20039;-82
2023/03/12 06:16:42;;;;;;;6.60;3.03;;;0.70;99.90;;;;;;5068052;28;20055;-82
2023/03/12 06:19:12;;;;;;;10.25;3.50;;;1.00;99.90;;;;;;5102513;28;20044;-82
2023/03/12 06:21:41;;;;;;;8.98;4.03;;;-0.10;99.90;;;;;;5068726;28;20509;-82
2023/03/12 06:24:08;;;;;;;6.15;3.00;;;0.30;99.90;;;;;;5085803;28;20107;-83
2023/03/12 06:26:35;;;;;;;7.65;3.63;;;0.00;99.90;;;;;;5085302;28;20045;-83
2023/03/12 06:29:02;;;;;;;10.32;3.15;;;-0.30;99.90;;;;;;5102656;28;20044;-83
2023/03/12 06:31:29;;;;;;;6.22;2.83;;;0.40;99.90;;;;;;5085324;28;20036;-83
2023/03/12 06:33:55;;;;;;;10.60;2.85;;;0.90;99.90;;;;;;5085909;28;20112;-82
2023/03/12 06:36:22;;;;;;;6.43;3.20;;;0.00;99.90;;;;;;5068764;28;20052;-83
2023/03/12 06:38:49;;;;;;;13.40;3.10;;;0.00;99.90;;;;;;5085338;28;20167;-83
2023/03/12 06:41:18;;;;;;;5.55;2.58;;;0.10;99.90;;;;;;5102109;28;20557;-83
2023/03/12 06:43:45;;;;;;;7.55;2.95;;;0.10;99.90;;;;;;5068573;28;20391;-83
2023/03/12 06:46:15;;;;;;;7.95;2.75;;;0.10;99.90;;;;;;5102075;28;20198;-83
2023/03/12 06:48:45;;;;;;;14.93;4.55;;;0.10;99.90;;;;;;5068082;28;20073;-82
2023/03/12 06:51:13;;;;;;;6.35;3.03;;;0.10;99.90;;;;;;5084818;28;20405;-83
2023/03/12 06:53:40;;;;;;;8.10;3.10;;;0.40;99.90;;;;;;5085483;28;20041;-82
2023/03/12 06:56:07;;;;;;;6.93;2.97;;;1.10;99.90;;;;;;5068955;28;20410;-83
2023/03/12 06:58:34;;;;;;;5.80;2.83;;;0.60;99.90;;;;;;5085192;28;20051;-82
2023/03/12 07:01:01;;;;;;;7.03;3.67;;;0.60;99.90;;;;;;5085059;28;20041;-83
2023/03/12 07:03:27;;;;;;;6.22;3.13;;;0.30;99.90;;;;;;5052322;28;20571;-82
2023/03/12 07:05:55;;;;;;;10.88;3.80;;;0.30;99.90;;;;;;5085250;28;20047;-83
2023/03/12 07:08:22;;;;;;;8.23;3.25;;;0.80;99.90;;;;;;5101463;28;20040;-83
2023/03/12 07:10:48;;;;;;;5.50;3.30;;;0.30;99.90;;;;;;5068477;28;20045;-82
2023/03/12 07:13:15;;;;;;;7.47;3.33;;;0.40;99.90;;;;;;5084963;28;20052;-83
2023/03/12 07:15:43;;;;;;;9.40;3.95;;;0.30;99.90;;;;;;5084859;28;20400;-83
2023/03/12 07:18:10;;;;;;;7.22;3.70;;;0.30;99.90;;;;;;5101735;28;20132;-83
2023/03/12 07:20:39;;;;;;;5.35;3.10;;;0.30;99.90;;;;;;5101462;28;20044;-82
2023/03/12 07:23:07;;;;;;;8.27;3.47;;;0.30;99.90;;;;;;5068349;28;20119;-82
2023/03/12 07:25:41;;;;;;;5.50;3.15;;;0.60;99.90;;;;;;5084860;28;20037;-82
2023/03/12 07:28:09;;;;;;;6.22;2.90;;;0.70;99.90;;;;;;5088333;28;20037;-83
2023/03/12 07:30:36;;;;;;;11.85;3.67;;;0.40;99.90;;;;;;5071898;28;20041;-83
2023/03/12 07:33:05;;;;;;;11.30;4.28;;;0.60;99.90;;;;;;5072551;28;20119;-83
2023/03/12 07:35:32;;;;;;;10.68;3.92;;;1.10;99.90;;;;;;5071662;28;20037;-82
2023/03/12 07:38:01;;;;;;;5.30;3.30;;;0.90;99.90;;;;;;5055309;28;20049;-82
2023/03/12 07:40:28;;;;;;;11.30;3.63;;;0.70;99.90;;;;;;5055413;28;20045;-83
2023/03/12 07:42:55;;;;;;;5.75;3.13;;;0.70;99.90;;;;;;5071816;28;20103;-83
2023/03/12 07:45:23;;;;;;;9.65;4.00;;;0.80;99.90;;;;;;5054425;28;20041;-83
2023/03/12 07:47:49;;;;;;;6.18;3.42;;;0.80;99.90;;;;;;5071039;28;20808;-83
2023/03/12 07:50:17;;;;;;;6.25;3.15;;;0.90;99.90;;;;;;5087559;28;20048;-83
2023/03/12 07:52:45;;;;;;;5.78;3.10;;;0.90;99.90;;;;;;5070896;28;20064;-83
2023/03/12 07:55:12;;;;;;;4.93;2.75;;;0.90;99.90;;;;;;5088037;28;20042;-83
2023/03/12 07:57:38;;;;;;;8.93;3.03;;;0.90;99.90;;;;;;5071298;28;20783;-83
2023/03/12 08:00:07;;;;;;;9.02;3.05;;;1.00;99.90;;;;;;5054968;28;20068;-83
2023/03/12 08:02:34;;;;;;;7.78;3.40;;;1.10;99.90;;;;;;5055129;28;20052;-83
2023/03/12 08:05:01;;;;;;;7.22;3.55;;;1.10;99.90;;;;;;5038773;28;20071;-83
2023/03/12 08:07:31;;;;;;;5.90;3.00;;;1.10;99.90;;;;;;5071624;28;20044;-83
2023/03/12 08:09:58;;;;;;;5.82;3.38;;;1.70;99.90;;;;;;5055253;28;20045;-82
2023/03/12 08:12:25;;;;;;;9.85;3.53;;;1.70;99.90;;;;;;5038500;28;20069;-82
2023/03/12 08:14:52;;;;;;;9.13;3.28;;;1.20;99.90;;;;;;5071071;28;20037;-80
2023/03/12 08:17:19;;;;;;;6.75;3.47;;;1.20;99.90;;;;;;5069333;28;20033;-81
2023/03/12 08:19:46;;;;;;;8.10;3.55;;;1.20;99.90;;;;;;5053910;28;20047;-83
2023/03/12 08:22:13;;;;;;;5.40;3.10;;;1.10;99.90;;;;;;5054158;28;20535;-82
2023/03/12 08:24:39;;;;;;;9.10;3.40;;;1.80;99.90;;;;;;5033461;28;20044;-83
2023/03/12 08:27:06;;;;;;;15.30;3.50;;;1.10;99.90;;;;;;5085344;28;20416;-83
2023/03/12 08:29:33;;;;;;;6.82;3.38;;;1.30;99.90;;;;;;5054460;28;20071;-82
2023/03/12 08:32:00;;;;;;;6.95;3.35;;;1.00;99.90;;;;;;5066946;28;20041;-82
2023/03/12 08:34:27;;;;;;;9.48;4.15;;;1.00;99.90;;;;;;5083027;28;20041;-83
2023/03/12 08:36:53;;;;;;;7.30;3.97;;;0.90;99.90;;;;;;5036408;28;20075;-83
2023/03/12 08:39:20;;;;;;;14.77;3.92;;;0.90;99.90;;;;;;5036330;28;20049;-82
2023/03/12 08:41:48;;;;;;;7.53;3.47;;;1.40;99.90;;;;;;5102871;28;20041;-82
2023/03/12 08:44:14;;;;;;;8.23;4.15;;;0.90;99.90;;;;;;5053744;28;20482;-82
2023/03/12 08:46:41;;;;;;;7.70;3.78;;;0.90;99.90;;;;;;5069906;28;20102;-82
2023/03/12 08:49:08;;;;;;;5.97;2.85;;;0.90;99.90;;;;;;5068718;28;20041;-81
2023/03/12 08:51:34;;;;;;;8.52;3.47;;;0.90;99.90;;;;;;5070438;28;20086;-82
2023/03/12 08:54:01;;;;;;;7.75;3.35;;;0.90;99.90;;;;;;5070253;28;20505;-82
2023/03/12 08:56:28;;;;;;;7.55;2.92;;;1.50;99.90;;;;;;5069210;28;20124;-82
2023/03/12 08:58:55;;;;;;;8.07;3.38;;;1.40;99.90;;;;;;5066246;28;20047;-82
2023/03/12 09:01:21;;;;;;;7.40;3.50;;;1.00;99.90;;;;;;5086192;28;20152;-82
2023/03/12 09:03:49;;;;;;;8.43;2.92;;;0.80;99.90;;;;;;5086209;28;20048;-80
2023/03/12 09:06:18;;;;;;;6.97;3.20;;;1.30;99.90;;;;;;5102821;28;20132;-81
2023/03/12 09:08:46;;;;;;;4.93;2.83;;;1.30;99.90;;;;;;5119379;28;20059;-81
2023/03/12 09:11:14;;;;;;;8.20;3.60;;;1.00;99.90;;;;;;5102775;28;20043;-81
2023/03/12 09:13:41;;;;;;;8.10;3.63;;;1.80;99.90;;;;;;5086672;28;20404;-81
2023/03/12 09:16:08;;;;;;;9.73;2.88;;;0.90;99.90;;;;;;5069814;28;20489;-81
2023/03/12 09:18:35;;;;;;;7.55;3.45;;;1.00;99.90;;;;;;5069881;28;20056;-81
2023/03/12 09:21:02;;;;;;;7.00;4.20;;;1.00;99.90;;;;;;5069283;28;20053;-81
2023/03/12 09:23:29;;;;;;;7.00;2.67;;;1.10;99.90;;;;;;5086539;28;20047;-81
2023/03/12 09:25:56;;;;;;;6.97;3.47;;;1.00;99.90;;;;;;5085811;28;20123;-81
2023/03/12 09:28:23;;;;;;;11.05;3.55;;;1.90;99.90;;;;;;5070237;28;20037;-81
2023/03/12 09:30:50;;;;;;;8.27;3.80;;;1.10;99.90;;;;;;5085978;28;20140;-82
2023/03/12 09:33:17;;;;;;;11.00;4.32;;;2.20;99.90;;;;;;5069504;28;20069;-82
2023/03/12 09:35:43;;;;;;;7.35;4.38;;;1.10;99.90;;;;;;5083517;28;20091;-81
2023/03/12 09:38:14;;;;;;;7.65;3.55;;;1.10;99.90;;;;;;5070255;28;20129;-82
2023/03/12 09:40:46;;;;;;;8.55;3.75;;;1.10;99.90;;;;;;5069138;28;20766;-81
2023/03/12 09:43:21;;;;;;;8.60;3.33;;;1.10;99.90;;;;;;5069777;28;20047;-82
2023/03/12 09:45:49;;;;;;;5.57;3.38;;;1.10;99.90;;;;;;5086882;28;20037;-82
2023/03/12 09:48:32;;;;;;;6.63;3.63;;;1.50;99.90;;;;;;5053355;28;20029;-82
2023/03/12 09:51:22;;;;;;;6.60;3.78;;;1.10;99.90;;;;;;5085567;28;20102;-82
2023/03/12 09:53:57;;;;;;;8.93;3.47;;;2.20;99.90;;;;;;5068841;28;20497;-82
2023/03/12 09:56:25;;;;;;;6.18;3.40;;;1.10;99.90;;;;;;5102937;28;20049;-82
2023/03/12 09:58:54;;;;;;;7.45;3.50;;;1.70;99.90;;;;;;5069093;28;20119;-81
2023/03/12 10:01:48;;;;;;;7.85;3.50;;;1.10;99.90;;;;;;5102193;28;20055;-82
2023/03/12 10:04:17;;;;;;;6.70;3.25;;;1.10;99.90;;;;;;5069829;28;20032;-82
2023/03/12 10:06:50;;;;;;;8.15;3.75;;;2.20;99.90;;;;;;5102708;28;20040;-82
2023/03/12 10:09:38;;;;;;;8.30;4.28;;;1.10;99.90;;;;;;5101188;28;20040;-82
2023/03/12 10:12:29;;;;;;;11.60;4.60;;;1.10;99.90;;;;;;5068775;28;20033;-82
2023/03/12 10:15:20;;;;;;;8.15;4.20;;;1.10;99.90;;;;;;5068917;28;20065;-82
2023/03/12 10:18:15;;;;;;;7.07;4.22;;;1.10;99.90;;;;;;5066613;28;20045;-81
2023/03/12 10:21:09;;;;;;;11.35;3.70;;;1.10;99.90;;;;;;5069791;28;20052;-81
2023/03/12 10:23:39;;;;;;;6.15;3.67;;;1.10;99.90;;;;;;5086051;28;20092;-82
2023/03/12 10:26:26;;;;;;;7.45;4.22;;;1.10;99.90;;;;;;5069013;28;20485;-82
2023/03/12 10:29:04;;;;;;;7.80;4.20;;;1.10;99.90;;;;;;5068987;28;20043;-82
2023/03/12 10:31:54;;;;;;;6.60;3.38;;;1.20;99.90;;;;;;5069738;28;20044;-82
2023/03/12 10:34:44;;;;;;;6.85;3.63;;;1.20;99.90;;;;;;5068921;28;20045;-82
2023/03/12 10:37:37;;;;;;;8.13;4.00;;;1.20;99.90;;;;;;5080363;28;20528;-82
2023/03/12 10:40:05;;;;;;;6.78;3.70;;;1.30;99.90;;;;;;5102339;28;20459;-81
2023/03/12 10:42:32;;;;;;;6.97;3.20;;;1.30;99.90;;;;;;5085767;28;20132;-82
2023/03/12 10:45:37;;;;;;;6.80;3.50;;;1.30;99.90;;;;;;5052403;28;20112;-81
2023/03/12 10:48:07;;;;;;;13.35;3.95;;;1.40;99.90;;;;;;5060437;28;20052;-82
2023/03/12 10:50:36;;;;;;;6.60;3.83;;;1.40;99.90;;;;;;5068805;28;20513;-82
2023/03/12 10:53:25;;;;;;;7.90;3.72;;;1.40;99.90;;;;;;5101608;28;20075;-82
2023/03/12 10:56:09;;;;;;;6.88;3.83;;;1.40;99.90;;;;;;5049056;28;20481;-82
2023/03/12 10:58:47;;;;;;;9.73;4.43;;;1.50;99.90;;;;;;5054728;28;20048;-82
2023/03/12 11:01:16;;;;;;;8.65;4.70;;;1.50;99.90;;;;;;5118632;28;20479;-82
2023/03/12 11:03:44;;;;;;;6.75;3.58;;;1.60;99.90;;;;;;5072317;28;20509;-82
2023/03/12 11:06:40;;;;;;;8.50;4.35;;;1.60;99.90;;;;;;5105438;28;20081;-82
2023/03/12 11:09:18;;;;;;;8.75;4.25;;;1.70;99.90;;;;;;5047280;28;20609;-82
2023/03/12 11:11:47;;;;;;;8.55;4.55;;;1.70;99.90;;;;;;5056042;28;20394;-82
2023/03/12 11:14:14;;;;;;;11.15;4.82;;;1.70;99.90;;;;;;5089090;28;20102;-82
2023/03/12 11:16:40;;;;;;;7.82;3.88;;;1.70;99.90;;;;;;5072206;28;20049;-82
2023/03/12 11:19:12;;;;;;;7.97;4.47;;;1.80;99.90;;;;;;5072734;28;20037;-82
2023/03/12 11:21:53;;;;;;;8.95;4.97;;;1.80;99.90;;;;;;5064669;28;20489;-82
2023/03/12 11:24:19;;;;;;;9.82;4.30;;;2.30;99.90;;;;;;5064807;28;20029;-82
2023/03/12 11:26:49;;;;;;;11.45;4.75;;;1.70;99.90;;;;;;5088804;28;20114;-82
2023/03/12 11:29:30;;;;;;;15.07;5.63;;;2.10;99.90;;;;;;5072242;28;20036;-82
2023/03/12 11:32:02;;;;;;;8.63;4.03;;;1.80;99.90;;;;;;5059068;28;20044;-82
2023/03/12 11:34:36;;;;;;;9.13;4.97;;;1.80;99.90;;;;;;5088855;28;20032;-82
2023/03/12 11:37:25;;;;;;;7.50;3.95;;;1.80;99.90;;;;;;5105470;28;20041;-82
2023/03/12 11:39:55;;;;;;;6.93;4.30;;;1.80;99.90;;;;;;5104879;28;20040;-82
2023/03/12 11:42:40;;;;;;;7.97;4.10;;;1.80;99.90;;;;;;5088559;28;20477;-82
2023/03/12 11:45:57;;;;;;;7.57;4.07;;;1.90;99.90;;;;;;5071815;28;20480;-82
2023/03/12 11:48:30;;;;;;;9.60;4.68;;;1.90;99.90;;;;;;5038981;28;20041;-82
2023/03/12 11:51:17;;;;;;;8.68;4.60;;;1.90;99.90;;;;;;5068477;28;20478;-82
2023/03/12 11:53:59;;;;;;;6.65;4.25;;;2.10;99.90;;;;;;5085821;28;20551;-82
2023/03/12 11:56:48;;;;;;;7.25;4.57;;;1.90;99.90;;;;;;5088645;28;20037;-81
2023/03/12 11:59:30;;;;;;;7.85;4.22;;;2.00;99.90;;;;;;5067210;28;20049;-82
2023/03/12 12:02:22;;;;;;;11.98;4.07;;;2.10;99.90;;;;;;5088387;28;20037;-82
2023/03/12 12:05:21;;;;;;;8.18;4.15;;;2.00;99.90;;;;;;5088525;28;20044;-82
2023/03/12 12:08:06;;;;;;;11.63;4.90;;;2.10;99.90;;;;;;5071847;28;20041;-82
2023/03/12 12:10:55;;;;;;;10.30;4.55;;;2.10;99.90;;;;;;5071984;28;20080;-82
2023/03/12 12:13:21;;;;;;;17.98;5.85;;;2.20;99.90;;;;;;5086511;28;20042;-82
2023/03/12 12:15:48;;;;;;;9.05;4.32;;;2.20;99.90;;;;;;5104848;28;20449;-82
2023/03/12 12:18:27;;;;;;;9.75;4.70;;;2.20;99.90;;;;;;5103868;28;20047;-81
2023/03/12 12:21:15;;;;;;;7.97;4.70;;;2.30;99.90;;;;;;5104838;28;20041;-82
2023/03/12 12:23:56;;;;;;;9.43;5.20;;;2.30;99.90;;;;;;5084776;28;20057;-82
2023/03/12 12:26:32;;;;;;;10.70;5.07;;;2.40;99.90;;;;;;5067889;28;20516;-82
2023/03/12 12:29:02;;;;;;;8.43;4.78;;;2.60;99.90;;;;;;5083200;28;20036;-82
2023/03/12 12:31:50;;;;;;;9.40;5.00;;;2.70;99.90;;;;;;5104744;28;20056;-83
2023/03/12 12:34:28;;;;;;;9.32;4.40;;;2.50;99.90;;;;;;5088367;28;20501;-82
2023/03/12 12:37:17;;;;;;;10.10;5.18;;;2.50;99.90;;;;;;5088490;28;20791;-82
2023/03/12 12:40:13;;;;;;;10.65;5.40;;;2.60;99.90;;;;;;5104396;28;20413;-82
2023/03/12 12:43:09;;;;;;;9.50;5.10;;;2.60;99.90;;;;;;5053881;28;20045;-82
2023/03/12 12:45:40;;;;;;;11.80;5.45;;;2.70;99.90;;;;;;5067651;28;20439;-82
2023/03/12 12:48:16;;;;;;;15.57;5.97;;;2.70;99.90;;;;;;5104258;28;20047;-82
2023/03/12 12:50:46;;;;;;;9.20;4.97;;;2.80;99.90;;;;;;5070879;28;20047;-82
2023/03/12 12:53:39;;;;;;;8.48;4.90;;;2.80;99.90;;;;;;5070502;28;20052;-82
2023/03/12 12:56:14;;;;;;;13.45;4.97;;;2.90;99.90;;;;;;5087025;28;20049;-82
2023/03/12 12:59:30;;;;;;;11.73;5.15;;;2.90;99.90;;;;;;5070492;28;20056;-82
2023/03/12 13:01:59;;;;;;;8.68;4.80;;;2.90;99.90;;;;;;5033187;28;20583;-82
2023/03/12 13:04:47;;;;;;;12.73;6.45;;;3.00;99.90;;;;;;5079873;28;20052;-82
2023/03/12 13:07:19;;;;;;;10.63;5.25;;;3.10;99.90;;;;;;5070596;28;20044;-82
2023/03/12 13:09:52;;;;;;;11.55;5.57;;;3.20;99.90;;;;;;5070725;28;20071;-82